Denzil, Canada
Current Conditions -  °F | °C
As of 8:00 AM on Tuesday 27 Jan 2015 (Local Time) from CYKY Reporting Station
Scattered Clouds Scattered Clouds  
Wind Chill: -8°   Ceiling: Unl
Heat Index: -4°   Visibility: 15mi
Dew Point: -5°   Wind: 7mph
Humidity: 93%   Direction: 30°NNE
Pressure: 29.78"   Gusts: NA
Location:  52.23°N, 109.65°W
Report Text: CYKY 271400Z 03006KT 15SM FEW090 SCT260 M04/M05 A2978 RMK AC1CI2 SLP118
Loading
Personal Weather Stations






























Interactive Weather Map New forecast layout! Learn more

10-Day Weather Forecast

Advertisements
Track Severe Weather on mobile